createdAt,value
2023-03-28T00:01:41.358Z,5.20
2023-03-28T00:04:11.516Z,5.18
2023-03-28T00:06:41.548Z,5.17
2023-03-28T00:09:11.027Z,5.16
2023-03-28T00:11:39.236Z,5.15
2023-03-28T00:14:08.270Z,5.14
2023-03-28T00:16:39.284Z,5.13
2023-03-28T00:19:11.592Z,5.13
2023-03-28T00:21:41.359Z,5.10
2023-03-28T00:24:13.767Z,5.10
2023-03-28T00:26:43.013Z,5.09
2023-03-28T00:29:15.746Z,5.10
2023-03-28T00:31:44.083Z,5.05
2023-03-28T00:34:13.323Z,5.08
2023-03-28T00:36:41.859Z,5.07
2023-03-28T00:39:11.228Z,5.03
2023-03-28T00:41:42.218Z,5.06
2023-03-28T00:44:43.640Z,5.04
2023-03-28T00:47:25.813Z,5.03
2023-03-28T00:49:58.510Z,4.97
2023-03-28T00:52:30.599Z,4.96
2023-03-28T00:54:59.549Z,4.97
2023-03-28T00:57:29.517Z,4.95
2023-03-28T00:59:57.482Z,4.94
2023-03-28T01:02:25.566Z,4.92
2023-03-28T01:04:59.403Z,4.93
2023-03-28T01:07:35.326Z,4.92
2023-03-28T01:10:05.143Z,4.90
2023-03-28T01:12:34.390Z,4.90
2023-03-28T01:15:03.971Z,4.88
2023-03-28T01:17:42.373Z,4.86
2023-03-28T01:20:46.829Z,4.86
2023-03-28T01:23:37.507Z,4.83
2023-03-28T01:26:37.374Z,4.79
2023-03-28T01:29:38.474Z,4.79
2023-03-28T01:32:55.137Z,4.71
2023-03-28T01:36:02.580Z,4.69
2023-03-28T01:38:37.835Z,4.69
2023-03-28T01:41:11.824Z,4.68
2023-03-28T01:43:53.262Z,4.65
2023-03-28T01:46:28.238Z,4.62
2023-03-28T01:49:05.783Z,4.61
2023-03-28T01:51:48.296Z,4.60
2023-03-28T01:54:28.993Z,4.55
2023-03-28T01:57:05.931Z,4.53
2023-03-28T01:59:40.154Z,4.48
2023-03-28T02:02:31.286Z,4.45
2023-03-28T02:05:23.674Z,4.44
2023-03-28T02:07:55.862Z,4.43
2023-03-28T02:10:47.715Z,4.38
2023-03-28T02:13:37.875Z,4.38
2023-03-28T02:16:26.641Z,4.35
2023-03-28T02:19:08.525Z,4.33
2023-03-28T02:22:11.885Z,4.33
2023-03-28T02:24:52.152Z,4.29
2023-03-28T02:27:45.568Z,4.28
2023-03-28T02:30:32.030Z,4.25
2023-03-28T02:33:01.287Z,4.25
2023-03-28T02:35:47.959Z,4.25
2023-03-28T02:38:21.362Z,4.23
2023-03-28T02:41:00.348Z,4.22
2023-03-28T02:43:44.771Z,4.22
2023-03-28T02:46:29.257Z,4.20
2023-03-28T02:49:20.740Z,4.18
2023-03-28T02:51:56.961Z,4.16
2023-03-28T02:54:34.451Z,4.13
2023-03-28T02:57:33.393Z,4.12
2023-03-28T03:00:10.941Z,4.12
2023-03-28T03:02:39.778Z,4.10
2023-03-28T03:05:09.682Z,4.09
2023-03-28T03:07:38.665Z,4.07
2023-03-28T03:10:07.733Z,4.04
2023-03-28T03:12:37.493Z,4.02
2023-03-28T03:15:08.511Z,4.01
2023-03-28T03:17:59.681Z,3.97
2023-03-28T03:20:34.455Z,3.93
2023-03-28T03:23:04.325Z,3.94
2023-03-28T03:25:34.660Z,3.92
2023-03-28T03:28:32.083Z,3.87
2023-03-28T03:31:03.601Z,3.89
2023-03-28T03:33:50.435Z,3.84
2023-03-28T03:36:22.776Z,3.81
2023-03-28T03:38:50.753Z,3.81
2023-03-28T03:41:22.535Z,3.80
2023-03-28T03:43:50.715Z,3.79
2023-03-28T03:46:20.078Z,3.79
2023-03-28T03:48:50.567Z,3.77
2023-03-28T03:51:19.363Z,3.76
2023-03-28T03:53:50.726Z,3.73
2023-03-28T03:56:21.203Z,3.74
2023-03-28T03:58:57.761Z,3.72
2023-03-28T04:01:32.215Z,3.71
2023-03-28T04:04:12.166Z,3.70
2023-03-28T04:06:59.790Z,3.70
2023-03-28T04:09:29.153Z,3.69
2023-03-28T04:12:00.801Z,3.61
2023-03-28T04:14:29.096Z,3.65
2023-03-28T04:17:21.365Z,3.63
2023-03-28T04:19:49.758Z,3.58
2023-03-28T04:22:19.209Z,3.57
2023-03-28T04:24:53.388Z,3.55
2023-03-28T04:27:35.753Z,3.51
2023-03-28T04:30:04.661Z,3.50
2023-03-28T04:32:59.005Z,3.48
2023-03-28T04:35:29.832Z,3.45
2023-03-28T04:37:58.855Z,3.44
2023-03-28T04:40:29.260Z,3.43
2023-03-28T04:43:13.283Z,3.39
2023-03-28T04:45:48.040Z,3.39
2023-03-28T04:48:19.703Z,3.40
2023-03-28T04:50:48.571Z,3.38
2023-03-28T04:53:17.421Z,3.35
2023-03-28T04:56:04.286Z,3.32
2023-03-28T04:58:33.393Z,3.30
2023-03-28T05:01:03.707Z,3.29
2023-03-28T05:03:55.736Z,3.23
2023-03-28T05:06:25.854Z,3.23
2023-03-28T05:08:53.852Z,3.23
2023-03-28T05:11:26.653Z,3.19
2023-03-28T05:13:54.584Z,3.17
2023-03-28T05:16:33.551Z,3.18
2023-03-28T05:19:22.775Z,3.15
2023-03-28T05:22:10.586Z,3.11
2023-03-28T05:24:42.232Z,3.10
2023-03-28T05:27:17.962Z,3.08
2023-03-28T05:29:50.465Z,3.08
2023-03-28T05:32:19.841Z,3.05
2023-03-28T05:34:49.265Z,3.05
2023-03-28T05:37:17.264Z,3.01
2023-03-28T05:39:55.749Z,2.99
2023-03-28T05:42:23.904Z,2.98
2023-03-28T05:44:52.142Z,2.98
2023-03-28T05:47:37.230Z,2.96
2023-03-28T05:50:08.229Z,2.96
2023-03-28T05:52:36.283Z,2.96
2023-03-28T05:55:08.380Z,2.96
2023-03-28T05:57:36.684Z,2.95
2023-03-28T06:00:14.888Z,2.95
2023-03-28T06:02:54.769Z,2.93
2023-03-28T06:05:41.914Z,2.97
2023-03-28T06:08:18.969Z,2.95
2023-03-28T06:10:46.979Z,2.96
2023-03-28T06:13:21.700Z,2.98
2023-03-28T06:15:49.678Z,3.04
2023-03-28T06:18:19.305Z,3.08
2023-03-28T06:20:51.725Z,3.14
2023-03-28T06:23:19.603Z,3.22
2023-03-28T06:25:47.549Z,3.28
2023-03-28T06:28:18.408Z,3.35
2023-03-28T06:31:05.859Z,3.41
2023-03-28T06:33:33.847Z,3.53
2023-03-28T06:36:03.386Z,3.58
2023-03-28T06:38:38.098Z,3.67
2023-03-28T06:41:07.198Z,3.72
2023-03-28T06:43:36.538Z,3.83
2023-03-28T06:46:30.445Z,3.88
2023-03-28T06:48:58.327Z,3.97
2023-03-28T06:51:30.334Z,4.08
2023-03-28T06:53:59.375Z,4.12
2023-03-28T06:56:31.077Z,4.20
2023-03-28T06:59:00.387Z,4.32
2023-03-28T07:01:34.135Z,4.42
2023-03-28T07:04:11.257Z,4.49
2023-03-28T07:06:42.895Z,4.66
2023-03-28T07:09:10.965Z,4.79
2023-03-28T07:11:46.627Z,4.92
2023-03-28T07:14:14.635Z,5.09
2023-03-28T07:16:42.720Z,5.26
2023-03-28T07:19:11.854Z,5.45
2023-03-28T07:21:44.565Z,5.70
2023-03-28T07:24:12.603Z,5.91
2023-03-28T07:26:54.851Z,6.12
2023-03-28T07:29:29.401Z,6.32
2023-03-28T07:31:57.394Z,6.58
2023-03-28T07:34:27.077Z,6.82
2023-03-28T07:36:57.118Z,7.08
2023-03-28T07:39:57.471Z,7.31
2023-03-28T07:42:28.084Z,7.56
2023-03-28T07:44:56.266Z,7.77
2023-03-28T07:47:24.076Z,7.97
2023-03-28T07:49:52.622Z,8.15
2023-03-28T07:52:28.025Z,8.33
2023-03-28T07:54:56.199Z,8.46
2023-03-28T07:57:24.295Z,8.57
2023-03-28T07:59:52.501Z,8.67
2023-03-28T08:02:24.558Z,8.76
2023-03-28T08:04:54.009Z,8.80
2023-03-28T08:07:28.873Z,8.86
2023-03-28T08:09:58.806Z,8.87
2023-03-28T08:12:29.217Z,8.91
2023-03-28T08:14:57.329Z,8.92
2023-03-28T08:17:26.563Z,8.93
2023-03-28T08:19:55.243Z,8.91
2023-03-28T08:22:23.400Z,8.93
2023-03-28T08:25:18.862Z,8.92
2023-03-28T08:27:47.632Z,8.90
2023-03-28T08:30:15.886Z,8.90
2023-03-28T08:32:51.176Z,8.88
2023-03-28T08:35:19.493Z,8.89
2023-03-28T08:37:51.298Z,8.89
2023-03-28T08:40:23.249Z,8.90
2023-03-28T08:43:06.527Z,8.89
2023-03-28T08:45:51.536Z,8.89
2023-03-28T08:48:23.883Z,8.91
2023-03-28T08:50:56.885Z,8.91
2023-03-28T08:53:30.346Z,8.93
2023-03-28T08:56:02.978Z,8.94
2023-03-28T08:58:35.813Z,8.95
2023-03-28T09:01:04.436Z,8.93
2023-03-28T09:03:37.461Z,8.98
2023-03-28T09:06:20.762Z,8.99
2023-03-28T09:09:16.226Z,8.99
2023-03-28T09:11:58.152Z,9.03
2023-03-28T09:14:51.996Z,9.04
2023-03-28T09:17:27.778Z,9.03
2023-03-28T09:20:12.392Z,9.03
2023-03-28T09:23:36.248Z,9.01
2023-03-28T09:26:36.228Z,8.98
2023-03-28T09:29:14.750Z,8.98
2023-03-28T09:31:47.715Z,8.94
2023-03-28T09:34:23.047Z,8.93
2023-03-28T09:36:57.717Z,8.92
2023-03-28T09:39:33.983Z,8.91
2023-03-28T09:42:09.303Z,8.91
2023-03-28T09:45:12.805Z,8.91
2023-03-28T09:47:59.124Z,8.92
2023-03-28T09:50:30.454Z,8.94
2023-03-28T09:53:01.172Z,8.97
2023-03-28T09:55:32.287Z,9.00
2023-03-28T09:58:06.607Z,9.03
2023-03-28T10:00:51.886Z,9.04
2023-03-28T10:03:39.048Z,9.03
2023-03-28T10:06:21.072Z,9.08
2023-03-28T10:08:50.358Z,9.07
2023-03-28T10:11:27.336Z,9.09
2023-03-28T10:13:56.510Z,9.13
2023-03-28T10:16:29.801Z,9.15
2023-03-28T10:19:14.308Z,9.16
2023-03-28T10:22:05.598Z,9.18
2023-03-28T10:24:36.045Z,9.17
2023-03-28T10:27:10.016Z,9.22
2023-03-28T10:29:39.686Z,9.22
2023-03-28T10:32:13.447Z,9.25
2023-03-28T10:34:45.796Z,9.25
2023-03-28T10:37:26.224Z,9.28
2023-03-28T10:40:27.997Z,9.28
2023-03-28T10:43:16.720Z,9.25
2023-03-28T10:46:15.657Z,9.26
2023-03-28T10:49:24.064Z,9.23
2023-03-28T10:52:15.497Z,9.22
2023-03-28T10:54:57.348Z,9.25
2023-03-28T10:57:53.896Z,9.24
2023-03-28T11:00:30.607Z,9.25
2023-03-28T11:03:18.691Z,9.23
2023-03-28T11:06:08.925Z,9.25
2023-03-28T11:08:53.909Z,9.23
2023-03-28T11:11:41.646Z,9.26
2023-03-28T11:14:22.452Z,9.29
2023-03-28T11:16:58.834Z,9.28
2023-03-28T11:20:08.757Z,9.32
2023-03-28T11:23:05.155Z,9.32
2023-03-28T11:25:47.069Z,9.34
2023-03-28T11:28:51.579Z,9.35
2023-03-28T11:31:28.024Z,9.36
2023-03-28T11:34:03.034Z,9.38
2023-03-28T11:36:35.898Z,9.38
2023-03-28T11:39:14.886Z,9.37
2023-03-28T11:41:46.083Z,9.37
2023-03-28T11:44:22.335Z,9.37
2023-03-28T11:46:55.663Z,9.35
2023-03-28T11:49:31.725Z,9.36
2023-03-28T11:52:05.669Z,9.35
2023-03-28T11:54:41.369Z,9.34
2023-03-28T11:57:15.252Z,9.32
2023-03-28T11:59:56.001Z,9.32
2023-03-28T12:02:47.446Z,9.32
2023-03-28T12:05:23.364Z,9.32
2023-03-28T12:07:56.595Z,9.32
2023-03-28T12:10:36.026Z,9.32
2023-03-28T12:13:14.390Z,9.34
2023-03-28T12:15:56.812Z,9.35
2023-03-28T12:18:30.537Z,9.40
2023-03-28T12:21:07.727Z,9.43
2023-03-28T12:23:53.652Z,9.45
2023-03-28T12:26:55.919Z,9.51
2023-03-28T12:29:32.050Z,9.55
2023-03-28T12:32:05.320Z,9.59
2023-03-28T12:34:39.553Z,9.63
2023-03-28T12:37:59.722Z,9.37
2023-03-28T12:41:12.146Z,9.66
2023-03-28T12:43:48.404Z,9.74
2023-03-28T12:46:24.413Z,9.81
2023-03-28T12:48:58.410Z,9.89
2023-03-28T12:51:33.929Z,9.97
2023-03-28T12:54:08.300Z,10.03
2023-03-28T12:56:37.405Z,10.11
2023-03-28T12:59:59.066Z,10.15
2023-03-28T13:02:50.605Z,10.27
2023-03-28T13:05:24.245Z,10.37
2023-03-28T13:08:55.157Z,10.44
2023-03-28T13:11:38.557Z,10.47
2023-03-28T13:14:26.252Z,10.52
2023-03-28T13:16:58.091Z,10.55
2023-03-28T13:19:39.481Z,10.60
2023-03-28T13:22:38.611Z,10.60
2023-03-28T13:30:04.005Z,10.63
2023-03-28T13:46:18.004Z,10.58
2023-03-28T13:48:52.226Z,10.60
2023-03-28T13:51:24.287Z,10.62
2023-03-28T13:53:52.604Z,10.59
2023-03-28T13:56:24.818Z,10.62
2023-03-28T13:58:55.472Z,10.59
2023-03-28T14:01:27.261Z,10.62
2023-03-28T14:03:56.417Z,10.62
2023-03-28T14:06:26.762Z,10.61
2023-03-28T14:08:56.912Z,10.62
2023-03-28T14:11:39.634Z,10.64
2023-03-28T14:15:13.113Z,10.62
2023-03-28T14:22:53.169Z,10.58
2023-03-28T14:29:33.078Z,10.63
2023-03-28T14:38:35.914Z,10.66
2023-03-28T14:41:16.157Z,10.67
2023-03-28T14:43:59.612Z,10.65
2023-03-28T14:46:34.502Z,10.66
2023-03-28T14:49:10.163Z,10.67
2023-03-28T14:51:43.352Z,10.68
2023-03-28T14:54:20.412Z,10.67
2023-03-28T14:56:54.718Z,10.65
2023-03-28T14:59:41.448Z,10.66
2023-03-28T15:02:24.521Z,10.65
2023-03-28T15:05:14.328Z,10.63
2023-03-28T15:08:06.375Z,10.59
2023-03-28T15:10:49.153Z,10.60
2023-03-28T15:13:23.355Z,10.56
2023-03-28T15:15:57.503Z,10.56
2023-03-28T15:18:33.800Z,10.56
2023-03-28T15:21:04.950Z,10.53
2023-03-28T15:24:04.337Z,10.51
2023-03-28T15:26:38.212Z,10.49
2023-03-28T15:32:03.802Z,10.46
2023-03-28T15:38:05.609Z,10.43
2023-03-28T15:40:40.262Z,10.41
2023-03-28T15:43:35.859Z,10.39
2023-03-28T15:46:18.281Z,10.40
2023-03-28T15:48:46.736Z,10.34
2023-03-28T15:51:21.781Z,10.37
2023-03-28T15:53:56.088Z,10.34
2023-03-28T15:56:34.109Z,10.37
2023-03-28T15:59:14.635Z,10.36
2023-03-28T16:01:50.575Z,10.34
2023-03-28T16:08:04.700Z,10.28
2023-03-28T16:10:45.388Z,10.29
2023-03-28T16:13:55.224Z,10.27
2023-03-28T16:17:08.949Z,10.23
2023-03-28T16:23:08.341Z,10.18
2023-03-28T16:25:41.481Z,10.17
2023-03-28T16:28:17.148Z,10.18
2023-03-28T16:30:45.848Z,10.15
2023-03-28T16:33:14.077Z,10.14
2023-03-28T16:35:42.514Z,10.14
2023-03-28T16:38:12.833Z,10.14
2023-03-28T16:40:41.841Z,10.12
2023-03-28T16:43:10.888Z,10.11
2023-03-28T16:45:39.006Z,10.10
2023-03-28T16:52:59.652Z,10.03
2023-03-28T16:55:53.708Z,10.02
2023-03-28T16:58:30.255Z,9.99
2023-03-28T17:01:06.346Z,10.01
2023-03-28T17:03:38.571Z,9.99
2023-03-28T17:06:20.574Z,10.00
2023-03-28T17:08:49.550Z,9.96
2023-03-28T17:11:20.643Z,9.96
2023-03-28T17:13:52.040Z,9.96
2023-03-28T17:16:20.499Z,9.94
2023-03-28T17:18:48.693Z,9.94
2023-03-28T17:21:18.334Z,9.93
2023-03-28T17:23:49.057Z,9.91
2023-03-28T17:26:18.952Z,9.91
2023-03-28T17:28:47.116Z,9.89
2023-03-28T17:31:17.651Z,9.89
2023-03-28T17:33:47.127Z,9.86
2023-03-28T17:36:21.029Z,9.86
2023-03-28T17:38:50.401Z,9.84
2023-03-28T17:41:23.112Z,9.84
2023-03-28T17:43:51.329Z,9.57
2023-03-28T17:46:19.548Z,9.75
2023-03-28T17:48:47.554Z,9.78
2023-03-28T17:51:16.284Z,9.79
2023-03-28T17:53:46.945Z,9.77
2023-03-28T17:56:15.789Z,9.76
2023-03-28T17:58:45.572Z,9.77
2023-03-28T18:01:16.639Z,9.75
2023-03-28T18:03:45.817Z,9.72
2023-03-28T18:06:24.155Z,9.70
2023-03-28T18:08:52.068Z,9.69
2023-03-28T18:11:20.150Z,9.68
2023-03-28T18:13:50.171Z,9.69
2023-03-28T18:16:19.060Z,9.66
2023-03-28T18:18:47.238Z,9.65
2023-03-28T18:21:15.626Z,9.64
2023-03-28T18:23:43.544Z,9.63
2023-03-28T18:26:12.196Z,9.62
2023-03-28T18:28:40.577Z,9.61
2023-03-28T18:31:11.627Z,9.62
2023-03-28T18:33:40.937Z,9.59
2023-03-28T18:36:10.102Z,9.58
2023-03-28T18:38:38.883Z,9.56
2023-03-28T18:41:08.278Z,9.54
2023-03-28T18:43:37.196Z,9.52
2023-03-28T18:46:08.224Z,9.53
2023-03-28T18:48:37.552Z,9.49
2023-03-28T18:51:06.979Z,9.46
2023-03-28T18:53:35.033Z,9.43
2023-03-28T18:56:03.434Z,9.41
2023-03-28T18:58:31.528Z,9.37
2023-03-28T19:01:01.143Z,9.37
2023-03-28T19:03:31.612Z,9.33
2023-03-28T19:06:02.348Z,9.32
2023-03-28T19:08:30.965Z,9.27
2023-03-28T19:11:00.720Z,9.26
2023-03-28T19:13:30.388Z,9.23
2023-03-28T19:15:59.670Z,9.20
2023-03-28T19:18:28.339Z,9.17
2023-03-28T19:20:58.127Z,9.15
2023-03-28T19:23:28.998Z,9.13
2023-03-28T19:25:57.242Z,9.08
2023-03-28T19:28:25.589Z,9.04
2023-03-28T19:31:01.298Z,9.01
2023-03-28T19:33:30.291Z,8.94
2023-03-28T19:35:58.824Z,8.89
2023-03-28T19:38:30.731Z,8.86
2023-03-28T19:40:59.513Z,8.81
2023-03-28T19:43:28.534Z,8.76
2023-03-28T19:46:02.192Z,8.74
2023-03-28T19:48:30.305Z,8.66
2023-03-28T19:50:58.727Z,8.62
2023-03-28T19:53:28.710Z,8.60
2023-03-28T19:55:58.899Z,8.56
2023-03-28T19:58:28.359Z,8.53
2023-03-28T20:00:57.108Z,8.50
2023-03-28T20:03:25.266Z,8.47
2023-03-28T20:05:53.242Z,8.45
2023-03-28T20:08:21.612Z,8.42
2023-03-28T20:10:52.537Z,8.40
2023-03-28T20:13:20.886Z,8.37
2023-03-28T20:15:48.795Z,8.36
2023-03-28T20:18:20.907Z,8.35
2023-03-28T20:20:52.900Z,8.32
2023-03-28T20:23:22.327Z,8.28
2023-03-28T20:25:53.178Z,8.30
2023-03-28T20:28:24.428Z,8.27
2023-03-28T20:30:53.402Z,8.26
2023-03-28T20:33:21.565Z,8.24
2023-03-28T20:35:52.899Z,8.24
2023-03-28T20:38:21.318Z,8.21
2023-03-28T20:40:49.535Z,8.20
2023-03-28T20:43:21.204Z,8.20
2023-03-28T20:45:53.741Z,8.18
2023-03-28T20:48:26.030Z,8.13
2023-03-28T20:50:55.217Z,8.11
2023-03-28T20:53:24.191Z,8.11
2023-03-28T20:56:01.880Z,8.11
2023-03-28T20:58:32.673Z,8.06
2023-03-28T21:01:02.146Z,8.05
2023-03-28T21:03:46.672Z,8.02
2023-03-28T21:06:16.137Z,7.98
2023-03-28T21:08:47.020Z,7.98
2023-03-28T21:11:16.580Z,7.93
2023-03-28T21:13:46.616Z,7.91
2023-03-28T21:16:15.867Z,7.88
2023-03-28T21:18:44.044Z,7.86
2023-03-28T21:21:13.358Z,7.84
2023-03-28T21:23:42.214Z,7.81
2023-03-28T21:26:12.793Z,7.80
2023-03-28T21:28:41.107Z,7.78
2023-03-28T21:31:13.232Z,7.75
2023-03-28T21:33:42.647Z,7.74
2023-03-28T21:36:12.855Z,7.73
2023-03-28T21:38:41.732Z,7.71
2023-03-28T21:41:11.592Z,7.70
2023-03-28T21:43:40.251Z,7.68
2023-03-28T21:46:11.278Z,7.66
2023-03-28T21:48:39.974Z,7.65
2023-03-28T21:51:07.888Z,7.63
2023-03-28T21:53:37.277Z,7.63
2023-03-28T21:56:06.622Z,7.61
2023-03-28T21:58:35.278Z,7.60
2023-03-28T22:01:04.151Z,7.60
2023-03-28T22:03:37.064Z,7.60
2023-03-28T22:06:06.768Z,7.57
2023-03-28T22:08:34.615Z,7.57
2023-03-28T22:11:04.792Z,7.57
2023-03-28T22:13:33.071Z,7.57
2023-03-28T22:16:00.964Z,7.56
2023-03-28T22:18:30.579Z,7.56
2023-03-28T22:21:02.412Z,7.58
2023-03-28T22:23:31.006Z,7.54
2023-03-28T22:25:58.844Z,7.54
2023-03-28T22:28:27.011Z,7.54
2023-03-28T22:30:56.101Z,7.53
2023-03-28T22:33:25.170Z,7.51
2023-03-28T22:35:53.420Z,7.50
2023-03-28T22:38:22.704Z,7.47
2023-03-28T22:40:50.841Z,7.46
2023-03-28T22:43:19.196Z,7.46
2023-03-28T22:45:47.345Z,7.43
2023-03-28T22:48:15.237Z,7.42
2023-03-28T22:50:44.446Z,7.40
2023-03-28T22:53:14.419Z,7.38
2023-03-28T22:55:46.284Z,7.38
2023-03-28T22:58:14.353Z,7.32
2023-03-28T23:00:43.722Z,7.31
2023-03-28T23:03:12.197Z,7.30
2023-03-28T23:05:40.240Z,7.27
2023-03-28T23:08:08.478Z,7.24
2023-03-28T23:10:36.466Z,7.23
2023-03-28T23:13:05.994Z,7.19
2023-03-28T23:15:34.069Z,7.15
2023-03-28T23:18:01.941Z,7.13
2023-03-28T23:20:29.921Z,7.10
2023-03-28T23:22:57.711Z,7.08
2023-03-28T23:25:25.995Z,7.07
2023-03-28T23:27:53.818Z,7.04
2023-03-28T23:30:23.067Z,7.05
2023-03-28T23:32:51.225Z,7.03
2023-03-28T23:35:19.140Z,7.03
2023-03-28T23:37:46.891Z,7.00
2023-03-28T23:40:15.573Z,7.00
2023-03-28T23:42:44.911Z,7.00
2023-03-28T23:45:14.898Z,7.02
2023-03-28T23:47:45.130Z,7.01
2023-03-28T23:50:14.257Z,6.99
2023-03-28T23:52:42.082Z,6.99
2023-03-28T23:55:10.185Z,6.99
2023-03-28T23:57:38.034Z,6.96
